createdAt,value
2017-11-22T00:02:17.818Z,20.45
2017-11-22T00:04:45.038Z,20.45
2017-11-22T00:07:12.247Z,20.43
2017-11-22T00:09:39.550Z,20.43
2017-11-22T00:12:06.772Z,20.41
2017-11-22T00:14:33.973Z,20.41
2017-11-22T00:17:01.203Z,20.40
2017-11-22T00:19:28.381Z,20.40
2017-11-22T00:21:55.633Z,20.39
2017-11-22T00:24:22.964Z,20.38
2017-11-22T00:26:50.126Z,20.36
2017-11-22T00:29:17.327Z,20.33
2017-11-22T00:31:44.558Z,20.34
2017-11-22T00:34:11.777Z,20.32
2017-11-22T00:36:38.996Z,20.31
2017-11-22T00:39:06.177Z,20.31
2017-11-22T00:41:33.386Z,20.32
2017-11-22T00:44:00.600Z,20.31
2017-11-22T00:46:27.781Z,20.30
2017-11-22T00:48:55.020Z,20.29
2017-11-22T00:51:22.194Z,20.29
2017-11-22T00:53:49.399Z,20.28
2017-11-22T00:56:16.608Z,20.28
2017-11-22T00:58:43.782Z,20.28
2017-11-22T01:01:11.040Z,20.25
2017-11-22T01:03:38.230Z,20.26
2017-11-22T01:06:05.440Z,20.26
2017-11-22T01:08:32.692Z,20.24
2017-11-22T01:10:59.929Z,20.24
2017-11-22T01:13:27.105Z,20.23
2017-11-22T01:15:54.305Z,20.22
2017-11-22T01:18:21.543Z,20.21
2017-11-22T01:20:48.766Z,20.20
2017-11-22T01:23:15.963Z,20.19
2017-11-22T01:25:43.197Z,20.19
2017-11-22T01:28:10.438Z,20.19
2017-11-22T01:30:37.604Z,20.17
2017-11-22T01:33:04.822Z,20.16
2017-11-22T01:35:32.067Z,20.16
2017-11-22T01:37:59.280Z,20.15
2017-11-22T01:40:26.502Z,20.12
2017-11-22T01:42:53.683Z,20.14
2017-11-22T01:45:20.892Z,20.13
2017-11-22T01:47:48.080Z,20.12
2017-11-22T01:50:15.298Z,20.12
2017-11-22T01:52:42.528Z,20.11
2017-11-22T01:55:09.700Z,20.10
2017-11-22T01:57:36.935Z,20.10
2017-11-22T02:00:04.133Z,20.07
2017-11-22T02:02:31.362Z,20.09
2017-11-22T02:04:58.549Z,20.10
2017-11-22T02:07:26.070Z,20.04
2017-11-22T02:09:53.294Z,19.99
2017-11-22T02:12:20.475Z,19.96
2017-11-22T02:14:47.777Z,19.95
2017-11-22T02:17:17.169Z,19.92
2017-11-22T02:19:44.455Z,19.89
2017-11-22T02:22:21.166Z,19.87
2017-11-22T02:24:48.446Z,19.86
2017-11-22T02:27:28.058Z,19.86
2017-11-22T02:29:55.349Z,19.85
2017-11-22T02:32:44.891Z,19.82
2017-11-22T02:35:12.153Z,19.80
2017-11-22T02:37:39.378Z,19.82
2017-11-22T02:40:06.653Z,19.82
2017-11-22T02:42:33.932Z,19.80
2017-11-22T02:45:13.832Z,19.79
2017-11-22T02:47:41.144Z,19.80
2017-11-22T02:50:08.426Z,19.79
2017-11-22T02:52:35.691Z,19.79
2017-11-22T02:55:02.956Z,19.79
2017-11-22T02:57:30.221Z,19.80
2017-11-22T02:59:57.548Z,19.81
2017-11-22T03:02:24.770Z,19.79
2017-11-22T03:04:52.038Z,19.79
2017-11-22T03:07:19.222Z,19.79
2017-11-22T03:09:46.542Z,19.80
2017-11-22T03:12:13.838Z,19.78
2017-11-22T03:14:45.547Z,19.79
2017-11-22T03:17:12.888Z,19.80
2017-11-22T03:22:37.471Z,19.81
2017-11-22T03:25:12.493Z,19.80
2017-11-22T03:27:39.738Z,19.80
2017-11-22T03:30:07.046Z,19.80
2017-11-22T03:32:35.233Z,19.80
2017-11-22T03:35:02.512Z,19.81
2017-11-22T03:37:51.378Z,19.75
2017-11-22T03:40:18.682Z,19.83
2017-11-22T03:42:58.192Z,19.81
2017-11-22T03:45:25.541Z,19.81
2017-11-22T03:47:55.141Z,19.82
2017-11-22T03:50:23.093Z,19.81
2017-11-22T03:52:50.334Z,19.83
2017-11-22T03:55:17.689Z,19.83
2017-11-22T04:00:42.644Z,19.82
2017-11-22T04:03:10.732Z,19.84
2017-11-22T04:05:38.049Z,19.83
2017-11-22T04:08:05.264Z,19.87
2017-11-22T04:10:32.495Z,19.92
2017-11-22T04:12:59.751Z,20.00
2017-11-22T04:15:26.996Z,20.06
2017-11-22T04:17:54.270Z,20.13
2017-11-22T04:20:21.476Z,20.18
2017-11-22T04:22:48.724Z,20.25
2017-11-22T04:25:16.019Z,20.30
2017-11-22T04:27:43.334Z,20.34
2017-11-22T04:30:25.129Z,20.39
2017-11-22T04:32:52.523Z,20.43
2017-11-22T04:40:46.892Z,20.57
2017-11-22T04:43:21.796Z,20.58
2017-11-22T04:45:49.009Z,20.63
2017-11-22T04:48:29.240Z,20.67
2017-11-22T04:50:56.478Z,20.70
2017-11-22T04:53:23.671Z,20.72
2017-11-22T04:56:13.055Z,20.76
2017-11-22T05:04:07.460Z,20.84
2017-11-22T05:06:34.719Z,20.85
2017-11-22T05:09:01.948Z,20.88
2017-11-22T05:14:20.967Z,20.91
2017-11-22T05:16:48.855Z,20.93
2017-11-22T05:19:16.142Z,20.93
2017-11-22T05:21:44.399Z,20.99
2017-11-22T05:24:12.147Z,21.02
2017-11-22T05:26:39.341Z,21.03
2017-11-22T05:31:42.071Z,21.05
2017-11-22T05:34:09.398Z,21.06
2017-11-22T05:36:36.659Z,21.09
2017-11-22T05:39:03.897Z,21.10
2017-11-22T05:41:31.171Z,21.11
2017-11-22T05:44:08.919Z,21.15
2017-11-22T05:52:12.905Z,21.19
2017-11-22T05:54:41.149Z,21.21
2017-11-22T05:59:40.089Z,21.26
2017-11-22T06:05:11.579Z,21.30
2017-11-22T06:10:11.288Z,21.30
2017-11-22T06:12:38.979Z,21.31
2017-11-22T06:15:12.205Z,21.33
2017-11-22T06:20:23.368Z,21.37
2017-11-22T06:22:51.596Z,21.37
2017-11-22T06:25:31.479Z,21.37
2017-11-22T07:28:38.357Z,21.78
2017-11-22T07:47:20.598Z,22.08
2017-11-22T08:13:35.398Z,22.30
2017-11-22T13:33:18.600Z,23.62
2017-11-22T14:09:42.770Z,23.75
2017-11-22T14:12:10.171Z,23.70
2017-11-22T14:14:37.672Z,23.76
2017-11-22T14:17:05.003Z,23.80
2017-11-22T14:19:33.252Z,23.74
2017-11-22T14:57:41.112Z,24.06
2017-11-22T16:20:09.526Z,23.78
2017-11-22T16:22:39.572Z,23.76
2017-11-22T16:35:23.424Z,23.66
2017-11-22T16:37:50.650Z,23.64
2017-11-22T16:40:17.876Z,23.62
2017-11-22T16:42:45.773Z,23.58
2017-11-22T16:45:13.107Z,23.62
2017-11-22T16:47:40.705Z,23.59
2017-11-22T17:28:51.005Z,23.36
2017-11-22T17:31:18.178Z,23.35
2017-11-22T17:33:45.446Z,23.33
2017-11-22T17:36:16.939Z,23.31
2017-11-22T17:38:44.571Z,23.29
2017-11-22T23:42:05.426Z,20.67
